Pagrindinis puslapis
METAR-TAF:

METAR-TAF

Oro uostai :

Giumri, Armėnija

platuma: 40-45-01N, ilguma: 043-51-33E, Aukštis: 1524 m

Dabartinis oras

Ataskaita buvo paskelbta 40 minutes, ne 06:30 UTC
Vėjas 3 kt iš Šiaurės/Šiaurės Vakarų
Temperatūra 0°C
Drėgmė 93%
Slėgis 1005 hPa
Matomumas: 8000 m
Mažai debesys ne aukštis 600 ft
Apsiniaukę ne aukštis 2600 ft
sniegas

METAR: UDSG 180630Z 34003KT 8000 -SN FEW006 OVC026 00/M01 Q1005 R02/590345 NOSIG

Laikas: 11:10 (07:10 UTC)

Prognozė

Ataskaita buvo paskelbta 2 valandos ir 4 minutes, ne 05:06 UTC
Prognozė galioja nuo 18 metu 06 UTC su 19 metu 06 UTC
Vėjas 6 kt iš Vakarų/Pietvakarių
Matomumas: 3000 m
Su prošvaistėmis ne aukštis 3000 ft
rūkana
Laikinai
nuo 18 metu 06 UTC su 18 metu 18 UTC
Vėjas 16 kt nuo kintamojo kryptimis
Matomumas: 1000 m
Apsiniaukę ne aukštis 500 ft
sniegas

TAF: UDSG 180506Z 1806/1906 24006KT 3000 BR BKN030 TEMPO 1806/1818 VRB16KT 1000 SN OVC005

Orai ataskaitas ir orų prognozės (METAR, TAF).

turimą stotys yra geltonos ir raudonos taškus žemėlapyje.

Perkelti pele per norėdami pamatyti stoties vardą.

Tada spustelėkite, norėdami matyti oro stebėjimo ir prognozės.

Norėdami pakeisti žemėlapį: spustelėkite ant žalios mygtukų su juodo kryžiaus žemyn,; žalią mygtuką su brūkšneliu, jei norite nutolinti; arba žalių rodyklių gretimoms žemėlapius.


METAR-TAF: